Nemo, South Dakota
Current Conditions -  °F | °C
As of 4:58 PM on Friday 28 Nov 2014 (Local Time) from KRCA Reporting Station
Clear Clear  
Wind Chill: 46°   Ceiling: Unl
Heat Index: 49°   Visibility: 10mi
Dew Point: 24°   Wind: 7mph
Humidity: 38%   Direction: 270°W
Pressure: 29.56"   Gusts: NA
Location:  44.19°N, 103.51°W
Report Text: KRCA 282358Z AUTO 27006KT 10SM CLR 09/M04 A2956 RMK AO2 SLP012 T00931043 10182 20078 53001 $
Loading
Personal Weather Stations






























Interactive Weather Map New forecast layout! Learn more

10-Day Weather Forecast

Advertisements
Track Severe Weather on mobile